Time;durP1;ratioP1;P1;durP2;ratioP2;P2;SDS_P1;SDS_P2;PMS_P1;PMS_P2;Temp;Humidity;BMP_temperature;BMP_pressure;BME280_temperature;BME280_humidity;BME280_pressure;Samples;Min_cycle;Max_cycle;Signal;HPM_P1;HPM_P2
2022/06/02 00:00:49;;;;;;;4.75;3.40;;;;;;;;;;5093797;28;20176;-75
2022/06/02 00:03:25;;;;;;;6.35;3.83;;;;;;;;;;5093585;28;20175;-75
2022/06/02 00:05:59;;;;;;;4.60;4.00;;;;;;;;;;5093135;28;20192;-75
2022/06/02 00:08:25;;;;;;;4.75;3.55;;;;;;;;;;5093955;28;20272;-75
2022/06/02 00:10:56;;;;;;;4.80;3.67;;;;;;;;;;5093696;28;20168;-74
2022/06/02 00:13:33;;;;;;;8.40;4.35;;;;;;;;;;5093776;28;20176;-75
2022/06/02 00:16:05;;;;;;;7.15;4.25;;;;;;;;;;5093699;28;20214;-75
2022/06/02 00:18:40;;;;;;;8.88;4.20;;;;;;;;;;5093765;28;20212;-77
2022/06/02 00:21:09;;;;;;;5.47;4.03;;;;;;;;;;5093772;28;20512;-76
2022/06/02 00:23:35;;;;;;;5.32;4.28;;;;;;;;;;5093258;28;20545;-76
2022/06/02 00:26:16;;;;;;;6.53;4.50;;;;;;;;;;5093459;28;20189;-75
2022/06/02 00:28:48;;;;;;;5.22;4.45;;;;;;;;;;5093461;28;20449;-76
2022/06/02 00:31:30;;;;;;;6.57;4.88;;;;;;;;;;5093384;28;20581;-75
2022/06/02 00:34:02;;;;;;;7.18;5.20;;;;;;;;;;5093281;28;20241;-73
2022/06/02 00:36:32;;;;;;;5.25;4.28;;;;;;;;;;5093395;28;20181;-75
2022/06/02 00:38:59;;;;;;;7.25;5.22;;;;;;;;;;5093192;28;20288;-75
2022/06/02 00:41:34;;;;;;;5.90;4.60;;;;;;;;;;5093337;28;20199;-76
2022/06/02 00:44:11;;;;;;;5.05;4.55;;;;;;;;;;5093099;28;20172;-76
2022/06/02 00:46:37;;;;;;;7.22;5.18;;;;;;;;;;5092096;28;20172;-75
2022/06/02 00:49:25;;;;;;;5.87;4.30;;;;;;;;;;5092944;28;20178;-76
2022/06/02 00:52:09;;;;;;;7.43;4.45;;;;;;;;;;5093419;28;20464;-76
2022/06/02 00:57:38;;;;;;;9.18;4.93;;;;;;;;;;5093554;28;20713;-76
2022/06/02 01:00:15;;;;;;;10.90;5.35;;;;;;;;;;5093118;28;20260;-76
2022/06/02 01:02:45;;;;;;;5.40;4.50;;;;;;;;;;5093421;28;20538;-74
2022/06/02 01:05:11;;;;;;;5.82;5.05;;;;;;;;;;5092949;28;20208;-75
2022/06/02 01:07:40;;;;;;;6.20;4.88;;;;;;;;;;5093292;28;20185;-75
2022/06/02 01:10:18;;;;;;;6.07;4.72;;;;;;;;;;5093148;28;20173;-75
2022/06/02 01:13:03;;;;;;;6.50;4.90;;;;;;;;;;5093117;28;20180;-74
2022/06/02 01:15:42;;;;;;;10.70;5.75;;;;;;;;;;5093502;28;20553;-75
2022/06/02 01:18:26;;;;;;;9.23;5.57;;;;;;;;;;5097139;28;20172;-74
2022/06/02 01:20:55;;;;;;;8.65;5.47;;;;;;;;;;5095776;28;20173;-74
2022/06/02 01:23:54;;;;;;;7.47;6.15;;;;;;;;;;5096643;28;20370;-75
2022/06/02 01:26:38;;;;;;;10.13;6.40;;;;;;;;;;5052785;28;20637;-75
2022/06/02 01:29:16;;;;;;;7.03;5.93;;;;;;;;;;5096933;28;20187;-76
2022/06/02 01:31:48;;;;;;;8.75;6.25;;;;;;;;;;5096892;28;20274;-76
2022/06/02 01:34:14;;;;;;;6.63;5.32;;;;;;;;;;5096557;28;20196;-76
2022/06/02 01:36:46;;;;;;;9.67;6.90;;;;;;;;;;5096879;28;20226;-75
2022/06/02 01:39:21;;;;;;;8.77;6.18;;;;;;;;;;5096505;28;20457;-76
2022/06/02 01:41:49;;;;;;;7.30;4.97;;;;;;;;;;5096861;28;20176;-74
2022/06/02 01:44:34;;;;;;;8.95;6.65;;;;;;;;;;5096425;28;20388;-74
2022/06/02 01:47:04;;;;;;;9.68;5.32;;;;;;;;;;5096604;28;20172;-77
2022/06/02 01:49:45;;;;;;;7.53;6.60;;;;;;;;;;5096398;28;20575;-76
2022/06/02 01:52:21;;;;;;;7.00;6.05;;;;;;;;;;5096713;28;20183;-75
2022/06/02 01:55:00;;;;;;;7.20;5.60;;;;;;;;;;5096201;28;20291;-75
2022/06/02 01:57:46;;;;;;;6.40;5.20;;;;;;;;;;5096413;28;20216;-75
2022/06/02 02:00:22;;;;;;;5.68;4.95;;;;;;;;;;5096479;28;20200;-76
2022/06/02 02:02:48;;;;;;;7.93;5.95;;;;;;;;;;5096511;28;20208;-75
2022/06/02 02:05:25;;;;;;;5.93;5.30;;;;;;;;;;5095927;28;20200;-76
2022/06/02 02:08:20;;;;;;;6.53;5.53;;;;;;;;;;5096304;28;20175;-76
2022/06/02 02:10:52;;;;;;;9.18;6.22;;;;;;;;;;5096268;28;20260;-76
2022/06/02 02:13:25;;;;;;;7.40;5.88;;;;;;;;;;5095726;28;20528;-77
2022/06/02 02:16:06;;;;;;;7.45;6.15;;;;;;;;;;5095949;28;20215;-74
2022/06/02 02:18:47;;;;;;;8.77;7.45;;;;;;;;;;5095928;28;20204;-74
2022/06/02 02:21:20;;;;;;;6.68;5.97;;;;;;;;;;5096188;28;20621;-76
2022/06/02 02:23:58;;;;;;;7.15;5.82;;;;;;;;;;5095422;28;20180;-75
2022/06/02 02:26:33;;;;;;;8.13;6.25;;;;;;;;;;5096031;28;20259;-76
2022/06/02 02:29:11;;;;;;;19.05;7.15;;;;;;;;;;5094967;28;20237;-76
2022/06/02 02:31:59;;;;;;;7.53;6.53;;;;;;;;;;5095651;28;20196;-75
2022/06/02 02:34:34;;;;;;;10.55;6.50;;;;;;;;;;5095473;28;20602;-75
2022/06/02 02:37:00;;;;;;;8.55;6.50;;;;;;;;;;5095662;28;20199;-76
2022/06/02 02:39:44;;;;;;;8.90;7.07;;;;;;;;;;5095565;28;20289;-76
2022/06/02 02:42:15;;;;;;;7.82;6.65;;;;;;;;;;5094370;28;20450;-75
2022/06/02 02:45:01;;;;;;;11.25;7.32;;;;;;;;;;5095036;28;20195;-75
2022/06/02 02:47:31;;;;;;;12.18;8.15;;;;;;;;;;5054259;28;20181;-74
2022/06/02 02:50:00;;;;;;;11.48;7.05;;;;;;;;;;5095269;28;20176;-75
2022/06/02 02:52:26;;;;;;;10.30;7.75;;;;;;;;;;5095319;28;20210;-74
2022/06/02 02:55:03;;;;;;;8.13;7.33;;;;;;;;;;5094981;28;20286;-75
2022/06/02 02:57:47;;;;;;;8.80;6.88;;;;;;;;;;5095309;28;20414;-76
2022/06/02 03:00:19;;;;;;;8.55;7.20;;;;;;;;;;5095141;28;20315;-75
2022/06/02 03:03:03;;;;;;;9.18;7.25;;;;;;;;;;5095018;28;20169;-75
2022/06/02 03:05:32;;;;;;;8.18;7.07;;;;;;;;;;5095280;28;20203;-75
2022/06/02 03:08:11;;;;;;;10.32;6.97;;;;;;;;;;5094943;28;20180;-76
2022/06/02 03:10:39;;;;;;;9.27;7.47;;;;;;;;;;5095359;28;20229;-75
2022/06/02 03:13:14;;;;;;;11.30;7.95;;;;;;;;;;5094927;28;20561;-75
2022/06/02 03:15:46;;;;;;;9.13;8.00;;;;;;;;;;5095000;28;20188;-75
2022/06/02 03:18:15;;;;;;;11.13;8.60;;;;;;;;;;5093534;28;20184;-76
2022/06/02 03:20:52;;;;;;;9.63;8.30;;;;;;;;;;5094964;28;20165;-76
2022/06/02 03:23:18;;;;;;;11.73;9.73;;;;;;;;;;5094544;28;20660;-75
2022/06/02 03:25:46;;;;;;;13.20;10.30;;;;;;;;;;5094680;28;20196;-74
2022/06/02 03:28:17;;;;;;;14.30;10.38;;;;;;;;;;5094566;28;20435;-75
2022/06/02 03:30:48;;;;;;;15.23;9.18;;;;;;;;;;5094800;28;20179;-75
2022/06/02 03:33:33;;;;;;;12.27;8.98;;;;;;;;;;5094483;28;20168;-76
2022/06/02 03:36:18;;;;;;;15.20;8.68;;;;;;;;;;5094415;28;20196;-74
2022/06/02 03:38:47;;;;;;;12.15;9.85;;;;;;;;;;5093027;28;20200;-75
2022/06/02 03:41:19;;;;;;;11.93;9.73;;;;;;;;;;5094569;28;20588;-76
2022/06/02 03:43:53;;;;;;;12.20;9.10;;;;;;;;;;5093991;28;20177;-75
2022/06/02 03:46:25;;;;;;;13.95;9.20;;;;;;;;;;5094307;28;20487;-76
2022/06/02 03:48:51;;;;;;;15.10;10.02;;;;;;;;;;5092981;28;20510;-75
2022/06/02 03:51:26;;;;;;;15.30;9.20;;;;;;;;;;5094301;28;20184;-75
2022/06/02 03:53:55;;;;;;;12.00;8.50;;;;;;;;;;5093846;28;20497;-76
2022/06/02 03:56:39;;;;;;;9.80;8.15;;;;;;;;;;5093976;28;20165;-75
2022/06/02 03:59:11;;;;;;;13.98;9.25;;;;;;;;;;5094152;28;20243;-76
2022/06/02 04:01:39;;;;;;;11.02;8.48;;;;;;;;;;5094297;28;20543;-76
2022/06/02 04:04:19;;;;;;;12.10;10.30;;;;;;;;;;5093702;28;20215;-75
2022/06/02 04:06:54;;;;;;;10.60;9.23;;;;;;;;;;5094095;28;20539;-76
2022/06/02 04:09:39;;;;;;;12.82;10.77;;;;;;;;;;5093897;28;20233;-75
2022/06/02 04:15:17;;;;;;;14.20;9.02;;;;;;;;;;5093519;28;20203;-75
2022/06/02 04:17:43;;;;;;;15.63;11.15;;;;;;;;;;5093870;28;20515;-74
2022/06/02 04:20:35;;;;;;;13.43;10.17;;;;;;;;;;5093996;28;20207;-75
2022/06/02 04:23:20;;;;;;;18.15;11.27;;;;;;;;;;5093577;28;20407;-75
2022/06/02 04:26:04;;;;;;;15.40;10.65;;;;;;;;;;5093537;28;20207;-75
2022/06/02 04:28:42;;;;;;;17.13;10.85;;;;;;;;;;5093631;28;20180;-76
2022/06/02 04:31:27;;;;;;;16.92;11.73;;;;;;;;;;5093717;28;20271;-75
2022/06/02 04:34:12;;;;;;;15.07;11.05;;;;;;;;;;5093162;28;20168;-74
2022/06/02 04:36:44;;;;;;;18.30;12.30;;;;;;;;;;5093290;28;20203;-75
2022/06/02 04:39:13;;;;;;;15.38;11.50;;;;;;;;;;5093571;28;20192;-75
2022/06/02 04:41:42;;;;;;;15.02;12.50;;;;;;;;;;5093494;28;20588;-75
2022/06/02 04:44:21;;;;;;;16.15;11.95;;;;;;;;;;5093062;28;20287;-76
2022/06/02 04:46:59;;;;;;;16.67;12.73;;;;;;;;;;5093215;28;20161;-75
2022/06/02 04:49:34;;;;;;;14.75;11.15;;;;;;;;;;5093273;28;20266;-76
2022/06/02 04:52:20;;;;;;;18.73;13.02;;;;;;;;;;5092824;28;20179;-75
2022/06/02 04:55:07;;;;;;;18.00;12.38;;;;;;;;;;5092756;28;20200;-76
2022/06/02 04:58:08;;;;;;;16.65;12.77;;;;;;;;;;5093331;28;20179;-75
2022/06/02 05:00:40;;;;;;;17.38;12.70;;;;;;;;;;5011024;28;20214;-74
2022/06/02 05:03:32;;;;;;;16.65;13.60;;;;;;;;;;5079629;28;20211;-75
2022/06/02 05:06:04;;;;;;;16.73;12.77;;;;;;;;;;5093206;28;20267;-75
2022/06/02 05:08:33;;;;;;;20.83;13.85;;;;;;;;;;5093253;28;20231;-76
2022/06/02 05:11:12;;;;;;;18.92;14.38;;;;;;;;;;5093313;28;20211;-76
2022/06/02 05:13:43;;;;;;;19.88;14.07;;;;;;;;;;5092912;28;20649;-76
2022/06/02 05:16:28;;;;;;;18.63;13.63;;;;;;;;;;5093485;28;20186;-75
2022/06/02 05:19:04;;;;;;;20.27;15.27;;;;;;;;;;5093098;28;20204;-76
2022/06/02 05:21:46;;;;;;;18.02;14.25;;;;;;;;;;5093272;28;20171;-75
2022/06/02 05:24:18;;;;;;;23.63;15.75;;;;;;;;;;5092641;28;20200;-75
2022/06/02 05:27:04;;;;;;;18.35;13.90;;;;;;;;;;5093140;28;20230;-75
2022/06/02 05:29:42;;;;;;;20.75;15.73;;;;;;;;;;5052088;28;20192;-75
2022/06/02 05:32:22;;;;;;;22.13;16.33;;;;;;;;;;5092953;28;20267;-75
2022/06/02 05:35:07;;;;;;;20.65;14.65;;;;;;;;;;5092828;28;20188;-76
2022/06/02 05:37:33;;;;;;;20.40;15.55;;;;;;;;;;5092828;28;20233;-74
2022/06/02 05:40:05;;;;;;;24.10;17.55;;;;;;;;;;5093155;28;20205;-74
2022/06/02 05:42:43;;;;;;;24.85;16.63;;;;;;;;;;5093001;28;20559;-75
2022/06/02 05:45:24;;;;;;;23.88;17.00;;;;;;;;;;5092437;28;20192;-76
2022/06/02 05:48:10;;;;;;;29.08;19.35;;;;;;;;;;5092902;28;20543;-75
2022/06/02 05:50:42;;;;;;;26.85;18.23;;;;;;;;;;5091524;28;20193;-76
2022/06/02 05:53:08;;;;;;;21.10;17.55;;;;;;;;;;5092408;28;20176;-75
2022/06/02 05:55:40;;;;;;;22.35;18.67;;;;;;;;;;5092743;28;20196;-76
2022/06/02 05:58:09;;;;;;;24.63;18.98;;;;;;;;;;5092886;28;20180;-75
2022/06/02 06:00:41;;;;;;;29.55;20.90;;;;;;;;;;5092756;28;20651;-76
2022/06/02 06:03:32;;;;;;;27.75;21.10;;;;;;;;;;5095384;28;20176;-74
2022/06/02 06:06:19;;;;;;;26.73;21.40;;;;;;;;;;5096558;28;20222;-74
2022/06/02 06:08:52;;;;;;;27.55;20.80;;;;;;;;;;5082783;28;20221;-75
2022/06/02 06:11:34;;;;;;;27.67;21.83;;;;;;;;;;5096294;28;20208;-76
2022/06/02 06:14:19;;;;;;;27.02;20.75;;;;;;;;;;5095903;28;20181;-75
2022/06/02 06:17:04;;;;;;;28.55;21.60;;;;;;;;;;5096192;28;20256;-76
2022/06/02 06:19:29;;;;;;;23.50;20.02;;;;;;;;;;5094772;28;20212;-75
2022/06/02 06:21:55;;;;;;;27.00;21.17;;;;;;;;;;5096166;28;20264;-78
2022/06/02 06:24:30;;;;;;;27.93;20.10;;;;;;;;;;5075695;28;20436;-78
2022/06/02 06:27:08;;;;;;;31.13;21.70;;;;;;;;;;5091121;28;20428;-78
2022/06/02 06:29:53;;;;;;;24.20;20.13;;;;;;;;;;5088287;28;20268;-76
2022/06/02 06:32:21;;;;;;;28.70;20.48;;;;;;;;;;5083951;28;20661;-76
2022/06/02 06:34:51;;;;;;;25.45;19.55;;;;;;;;;;5092872;28;20200;-78
2022/06/02 06:37:24;;;;;;;23.48;20.95;;;;;;;;;;5095143;28;20238;-77
2022/06/02 06:39:58;;;;;;;23.35;19.98;;;;;;;;;;5095758;28;20208;-75
2022/06/02 06:42:26;;;;;;;21.95;17.25;;;;;;;;;;5095391;28;20222;-78
2022/06/02 06:44:57;;;;;;;27.90;18.27;;;;;;;;;;5095334;28;20225;-78
2022/06/02 06:47:23;;;;;;;28.57;20.13;;;;;;;;;;5094176;28;20815;-76
2022/06/02 06:49:53;;;;;;;23.33;19.73;;;;;;;;;;5095422;28;20463;-78
2022/06/02 06:52:41;;;;;;;23.63;18.67;;;;;;;;;;5095566;28;20173;-78
2022/06/02 06:55:19;;;;;;;22.73;19.17;;;;;;;;;;5093985;28;20246;-78
2022/06/02 06:58:04;;;;;;;26.52;19.00;;;;;;;;;;5095239;28;20874;-79
2022/06/02 07:00:36;;;;;;;22.87;18.30;;;;;;;;;;5094095;28;20550;-79
2022/06/02 07:03:16;;;;;;;23.17;17.80;;;;;;;;;;5095075;28;20762;-76
2022/06/02 07:05:49;;;;;;;21.90;17.40;;;;;;;;;;5095170;28;20192;-78
2022/06/02 07:08:33;;;;;;;25.90;17.90;;;;;;;;;;5095270;28;20441;-79
2022/06/02 07:12:50;;;;;;;25.40;18.57;;;;;;;;;;5095101;28;20815;-77
2022/06/02 07:14:06;;;;;;;30.57;21.40;;;;;;;;;;5093913;28;20418;-79
2022/06/02 07:16:35;;;;;;;22.70;19.60;;;;;;;;;;5093957;28;20496;-75
2022/06/02 07:19:20;;;;;;;23.47;20.20;;;;;;;;;;5095087;28;20456;-78
2022/06/02 07:21:56;;;;;;;21.13;18.17;;;;;;;;;;5095088;28;20455;-79
2022/06/02 07:24:28;;;;;;;30.30;19.67;;;;;;;;;;5094433;28;20756;-78
2022/06/02 07:27:13;;;;;;;26.37;17.90;;;;;;;;;;5094747;28;20399;-80
2022/06/02 07:29:39;;;;;;;25.00;20.00;;;;;;;;;;5094739;28;20759;-79
2022/06/02 07:32:20;;;;;;;32.30;19.23;;;;;;;;;;5094634;28;20434;-76
2022/06/02 07:34:49;;;;;;;23.63;18.23;;;;;;;;;;5093041;28;20531;-78
2022/06/02 07:37:30;;;;;;;23.77;20.37;;;;;;;;;;5094468;28;20409;-80
2022/06/02 07:39:56;;;;;;;24.10;19.57;;;;;;;;;;5094391;28;20458;-80
2022/06/02 07:42:37;;;;;;;23.80;20.67;;;;;;;;;;5094539;28;20460;-80
2022/06/02 07:45:12;;;;;;;22.90;17.83;;;;;;;;;;5094100;28;20427;-79
2022/06/02 07:47:44;;;;;;;23.23;18.30;;;;;;;;;;5094516;28;20402;-79
2022/06/02 07:50:15;;;;;;;24.17;19.30;;;;;;;;;;5093067;28;20397;-78
2022/06/02 07:52:43;;;;;;;20.33;17.80;;;;;;;;;;5094408;28;20438;-79
2022/06/02 07:55:25;;;;;;;19.53;17.53;;;;;;;;;;5094074;28;20431;-79
2022/06/02 07:57:54;;;;;;;16.90;14.50;;;;;;;;;;5094115;28;20450;-79
2022/06/02 08:00:22;;;;;;;16.70;13.50;;;;;;;;;;5094003;28;20465;-79
2022/06/02 08:02:55;;;;;;;25.77;13.23;;;;;;;;;;5094048;28;20411;-76
2022/06/02 08:05:45;;;;;;;13.93;12.23;;;;;;;;;;5094330;28;20480;-79
2022/06/02 08:08:15;;;;;;;15.37;12.73;;;;;;;;;;5094387;28;20413;-77
2022/06/02 08:10:41;;;;;;;14.40;12.80;;;;;;;;;;5094323;28;20425;-78
2022/06/02 08:13:14;;;;;;;12.73;11.10;;;;;;;;;;5093656;28;20423;-81
2022/06/02 08:15:45;;;;;;;11.10;9.90;;;;;;;;;;5094015;28;20423;-77
2022/06/02 08:18:33;;;;;;;16.07;11.40;;;;;;;;;;5093778;28;20415;-77
2022/06/02 08:20:58;;;;;;;15.40;11.80;;;;;;;;;;5093834;28;20422;-80
2022/06/02 08:23:24;;;;;;;16.30;12.03;;;;;;;;;;5093283;28;20413;-77
2022/06/02 08:25:56;;;;;;;15.93;12.40;;;;;;;;;;5091553;28;20961;-80
2022/06/02 08:28:38;;;;;;;17.37;11.97;;;;;;;;;;5093538;28;20779;-79
2022/06/02 08:31:11;;;;;;;16.97;13.30;;;;;;;;;;5093851;28;20510;-80
2022/06/02 08:33:38;;;;;;;14.27;11.27;;;;;;;;;;5093300;28;20409;-78
2022/06/02 08:36:04;;;;;;;12.40;11.10;;;;;;;;;;5093550;28;20917;-79
2022/06/02 08:38:41;;;;;;;12.80;11.50;;;;;;;;;;5093354;28;20402;-79
2022/06/02 08:41:28;;;;;;;15.30;11.50;;;;;;;;;;5093817;28;20402;-80
2022/06/02 08:43:54;;;;;;;13.53;10.93;;;;;;;;;;5093146;28;20778;-77
2022/06/02 08:46:23;;;;;;;12.30;9.80;;;;;;;;;;5093394;28;20415;-77
2022/06/02 08:49:08;;;;;;;10.70;9.50;;;;;;;;;;5093577;28;20411;-78
2022/06/02 08:51:34;;;;;;;10.93;9.83;;;;;;;;;;5093449;28;20765;-77
2022/06/02 08:54:14;;;;;;;10.07;9.07;;;;;;;;;;5092913;28;20410;-80
2022/06/02 08:56:58;;;;;;;11.40;8.40;;;;;;;;;;5093234;28;20498;-81
2022/06/02 09:00:00;;;;;;;14.60;10.93;;;;;;;;;;5091921;28;20572;-77
2022/06/02 09:02:45;;;;;;;12.90;10.70;;;;;;;;;;5011244;28;20400;-80
2022/06/02 09:05:11;;;;;;;11.97;10.77;;;;;;;;;;5087599;28;20960;-77
2022/06/02 09:07:53;;;;;;;14.13;10.57;;;;;;;;;;5093371;28;20414;-77
2022/06/02 09:10:35;;;;;;;13.50;9.50;;;;;;;;;;5093362;28;20406;-79
2022/06/02 09:13:04;;;;;;;12.20;10.10;;;;;;;;;;5093121;28;20736;-77
2022/06/02 09:15:46;;;;;;;10.90;9.73;;;;;;;;;;5093387;28;20404;-76
2022/06/02 09:18:12;;;;;;;11.17;10.00;;;;;;;;;;5093388;28;20362;-78
2022/06/02 09:20:40;;;;;;;10.20;7.90;;;;;;;;;;5093447;28;20444;-78
2022/06/02 09:23:15;;;;;;;10.43;9.33;;;;;;;;;;5093143;28;20464;-76
2022/06/02 09:25:53;;;;;;;10.07;9.07;;;;;;;;;;5093214;28;20426;-77
2022/06/02 09:28:19;;;;;;;8.17;7.40;;;;;;;;;;5092386;28;20409;-78
2022/06/02 09:31:04;;;;;;;10.00;8.03;;;;;;;;;;5092772;28;20926;-80
2022/06/02 09:33:53;;;;;;;8.87;7.97;;;;;;;;;;5092896;28;20409;-79
2022/06/02 09:36:37;;;;;;;8.50;7.30;;;;;;;;;;5093262;28;20929;-78
2022/06/02 09:39:09;;;;;;;9.23;7.30;;;;;;;;;;5096915;28;20458;-78
2022/06/02 09:41:47;;;;;;;10.20;8.17;;;;;;;;;;5097051;28;20752;-78
2022/06/02 09:44:23;;;;;;;8.67;6.90;;;;;;;;;;5095267;28;20438;-81
2022/06/02 09:47:01;;;;;;;8.93;7.10;;;;;;;;;;5095496;28;20414;-77
2022/06/02 09:49:34;;;;;;;4.80;4.40;;;;;;;;;;5096650;28;20890;-79
2022/06/02 09:52:05;;;;;;;6.10;4.30;;;;;;;;;;5096910;28;20886;-78
2022/06/02 09:54:37;;;;;;;5.53;3.80;;;;;;;;;;5097040;28;20433;-79
2022/06/02 10:00:25;;;;;;;4.43;4.13;;;;;;;;;;5096468;28;20466;-77
2022/06/02 10:03:03;;;;;;;6.33;4.90;;;;;;;;;;5096206;28;20514;-78
2022/06/02 10:05:35;;;;;;;6.50;5.10;;;;;;;;;;5096338;28;20439;-76
2022/06/02 10:08:11;;;;;;;4.90;4.40;;;;;;;;;;5096302;28;20404;-75
2022/06/02 10:10:39;;;;;;;5.53;5.03;;;;;;;;;;5096455;28;20436;-74
2022/06/02 10:13:24;;;;;;;5.87;5.27;;;;;;;;;;5088281;28;20418;-75
2022/06/02 10:16:08;;;;;;;7.73;5.20;;;;;;;;;;5085514;28;20427;-76
2022/06/02 10:18:45;;;;;;;5.33;4.80;;;;;;;;;;5096121;28;20399;-79
2022/06/02 10:21:32;;;;;;;5.87;4.90;;;;;;;;;;5095976;28;20483;-76
2022/06/02 10:24:16;;;;;;;6.80;4.93;;;;;;;;;;5092495;28;20412;-76
2022/06/02 10:26:42;;;;;;;8.70;4.87;;;;;;;;;;5086465;28;20415;-75
2022/06/02 10:29:14;;;;;;;5.70;5.10;;;;;;;;;;5083981;28;20404;-74
2022/06/02 10:31:59;;;;;;;6.90;5.60;;;;;;;;;;5092827;28;20996;-75
2022/06/02 10:34:37;;;;;;;6.50;5.53;;;;;;;;;;5095026;28;20563;-76
2022/06/02 10:37:03;;;;;;;5.87;5.30;;;;;;;;;;5095364;28;20430;-75
2022/06/02 10:39:44;;;;;;;5.17;4.73;;;;;;;;;;5095584;28;20493;-74
2022/06/02 10:42:12;;;;;;;7.00;5.17;;;;;;;;;;5095445;28;20734;-75
2022/06/02 10:45:13;;;;;;;6.13;4.70;;;;;;;;;;5095106;28;20433;-76
2022/06/02 10:48:02;;;;;;;6.67;5.73;;;;;;;;;;5095139;28;20763;-77
2022/06/02 10:50:47;;;;;;;6.33;5.00;;;;;;;;;;5084706;28;20422;-76
2022/06/02 10:53:18;;;;;;;6.17;4.90;;;;;;;;;;5085993;28;20423;-76
2022/06/02 10:55:57;;;;;;;4.70;4.20;;;;;;;;;;5086459;28;20475;-74
2022/06/02 10:58:38;;;;;;;6.30;5.37;;;;;;;;;;5095375;28;20405;-77
2022/06/02 11:01:23;;;;;;;8.50;5.93;;;;;;;;;;5095195;28;20779;-77
2022/06/02 11:04:08;;;;;;;7.93;4.93;;;;;;;;;;5095003;28;20387;-75
2022/06/02 11:06:52;;;;;;;5.23;4.83;;;;;;;;;;5095417;28;20403;-77
2022/06/02 11:09:18;;;;;;;5.67;5.17;;;;;;;;;;5095168;28;20447;-75
2022/06/02 11:11:50;;;;;;;6.13;5.53;;;;;;;;;;5095006;28;20411;-78
2022/06/02 11:14:19;;;;;;;5.40;5.00;;;;;;;;;;5094623;28;20418;-77
2022/06/02 11:16:48;;;;;;;5.90;4.40;;;;;;;;;;5095108;28;20914;-78
2022/06/02 11:19:33;;;;;;;5.37;4.97;;;;;;;;;;5094788;28;20937;-77
2022/06/02 11:21:59;;;;;;;6.13;4.97;;;;;;;;;;5095003;28;20400;-78
2022/06/02 11:24:46;;;;;;;5.87;5.37;;;;;;;;;;5094561;28;20427;-77
2022/06/02 11:27:31;;;;;;;5.40;4.90;;;;;;;;;;5095117;28;20407;-77
2022/06/02 11:29:57;;;;;;;7.67;6.07;;;;;;;;;;5094909;28;20407;-78
2022/06/02 11:32:41;;;;;;;6.63;5.57;;;;;;;;;;5094603;28;20472;-76
2022/06/02 11:35:17;;;;;;;7.73;6.97;;;;;;;;;;5094115;28;20755;-78
2022/06/02 11:37:53;;;;;;;6.50;5.90;;;;;;;;;;5094388;28;20890;-76
2022/06/02 11:40:37;;;;;;;8.77;6.80;;;;;;;;;;5094566;28;20820;-76
2022/06/02 11:43:06;;;;;;;5.67;5.10;;;;;;;;;;5094190;28;20406;-76
2022/06/02 11:45:37;;;;;;;7.20;5.93;;;;;;;;;;5094314;28;20419;-76
2022/06/02 11:48:15;;;;;;;7.63;5.43;;;;;;;;;;5094334;28;20401;-77
2022/06/02 11:51:00;;;;;;;7.80;5.10;;;;;;;;;;5093031;28;20411;-77
2022/06/02 11:53:45;;;;;;;5.83;5.33;;;;;;;;;;5093896;28;20407;-77
2022/06/02 11:56:24;;;;;;;6.27;5.37;;;;;;;;;;5094374;28;20426;-75
2022/06/02 11:58:56;;;;;;;5.80;5.23;;;;;;;;;;5094106;28;20817;-75
2022/06/02 12:01:43;;;;;;;5.70;5.20;;;;;;;;;;5092619;28;20430;-77
2022/06/02 12:04:28;;;;;;;4.40;4.10;;;;;;;;;;5092181;28;20965;-76
2022/06/02 12:07:13;;;;;;;6.43;4.73;;;;;;;;;;5094140;28;20403;-76
2022/06/02 12:09:41;;;;;;;9.07;4.47;;;;;;;;;;5093966;28;20415;-77
2022/06/02 12:12:21;;;;;;;4.53;4.23;;;;;;;;;;5093707;28;20422;-76
2022/06/02 12:14:56;;;;;;;4.07;3.50;;;;;;;;;;5093497;28;20801;-78
2022/06/02 12:17:46;;;;;;;7.13;3.60;;;;;;;;;;5094123;28;20757;-76
2022/06/02 12:20:28;;;;;;;4.07;3.67;;;;;;;;;;5093702;28;20514;-77
2022/06/02 12:22:54;;;;;;;3.03;2.63;;;;;;;;;;5093796;28;20410;-77
2022/06/02 12:25:21;;;;;;;4.60;2.93;;;;;;;;;;5093606;28;20560;-78
2022/06/02 12:27:47;;;;;;;3.57;3.27;;;;;;;;;;5093592;28;20405;-76
2022/06/02 12:30:22;;;;;;;3.67;3.37;;;;;;;;;;5093560;28;20423;-77
2022/06/02 12:33:03;;;;;;;4.37;3.40;;;;;;;;;;5093668;28;20495;-77
2022/06/02 12:35:48;;;;;;;4.20;3.07;;;;;;;;;;5093484;28;20421;-76
2022/06/02 12:38:26;;;;;;;3.93;3.33;;;;;;;;;;5093270;28;20406;-76
2022/06/02 12:41:06;;;;;;;6.40;3.60;;;;;;;;;;5093609;28;20417;-77
2022/06/02 12:43:53;;;;;;;4.00;2.97;;;;;;;;;;5093331;28;20404;-76
2022/06/02 12:46:32;;;;;;;3.83;2.80;;;;;;;;;;5093303;28;20786;-78
2022/06/02 12:48:58;;;;;;;3.10;2.90;;;;;;;;;;5093475;28;20478;-75
2022/06/02 12:51:42;;;;;;;4.07;3.70;;;;;;;;;;5093427;28;20398;-77
2022/06/02 12:54:27;;;;;;;3.80;3.50;;;;;;;;;;5092732;28;20483;-76
2022/06/02 12:56:56;;;;;;;3.47;3.13;;;;;;;;;;5093183;28;20399;-75
2022/06/02 12:59:40;;;;;;;3.77;3.30;;;;;;;;;;5093194;28;20461;-78
2022/06/02 13:02:23;;;;;;;4.63;3.30;;;;;;;;;;5093142;28;20826;-75
2022/06/02 13:05:08;;;;;;;4.40;3.03;;;;;;;;;;5092861;28;20903;-77
2022/06/02 13:07:34;;;;;;;2.57;2.30;;;;;;;;;;5093428;28;20434;-76
2022/06/02 13:10:16;;;;;;;3.53;2.20;;;;;;;;;;5093375;28;20414;-78
2022/06/02 13:13:01;;;;;;;2.90;2.57;;;;;;;;;;5095996;28;20954;-76
2022/06/02 13:15:33;;;;;;;4.33;2.60;;;;;;;;;;5097024;28;20934;-78
2022/06/02 13:17:59;;;;;;;3.73;3.43;;;;;;;;;;5097308;28;20403;-76
2022/06/02 13:20:28;;;;;;;3.57;3.03;;;;;;;;;;5096972;28;20820;-77
2022/06/02 13:23:12;;;;;;;3.00;2.70;;;;;;;;;;5096890;28;20392;-77
2022/06/02 13:25:39;;;;;;;4.50;2.77;;;;;;;;;;5097061;28;20423;-77
2022/06/02 13:28:24;;;;;;;5.77;5.20;;;;;;;;;;5097039;28;20391;-75
2022/06/02 13:30:50;;;;;;;2.60;2.40;;;;;;;;;;5097118;28;20998;-77
2022/06/02 13:33:27;;;;;;;3.93;2.27;;;;;;;;;;5097058;28;20407;-77
2022/06/02 13:35:59;;;;;;;4.10;2.90;;;;;;;;;;5096986;28;20784;-78
2022/06/02 13:38:41;;;;;;;3.20;2.73;;;;;;;;;;5097006;28;20445;-78
2022/06/02 13:41:13;;;;;;;2.37;2.10;;;;;;;;;;5096807;28;20427;-76
2022/06/02 13:43:42;;;;;;;2.90;2.70;;;;;;;;;;5096583;28;20460;-77
2022/06/02 13:46:20;;;;;;;3.27;2.20;;;;;;;;;;5096755;28;20418;-78
2022/06/02 13:49:05;;;;;;;2.90;2.60;;;;;;;;;;5096508;28;20483;-77
2022/06/02 13:51:56;;;;;;;4.50;2.90;;;;;;;;;;5096519;28;20444;-75
2022/06/02 13:57:38;;;;;;;2.60;2.40;;;;;;;;;;5096534;28;20750;-76
2022/06/02 14:00:24;;;;;;;2.40;2.20;;;;;;;;;;5096603;28;20475;-76
2022/06/02 14:02:50;;;;;;;3.13;2.93;;;;;;;;;;5096037;28;20402;-76
2022/06/02 14:05:19;;;;;;;2.80;2.60;;;;;;;;;;5096002;28;20412;-75
2022/06/02 14:07:57;;;;;;;2.70;2.50;;;;;;;;;;5096280;28;20430;-76
2022/06/02 14:10:26;;;;;;;2.80;2.33;;;;;;;;;;5096198;28;20430;-76
2022/06/02 14:12:59;;;;;;;2.40;1.97;;;;;;;;;;5095508;28;20409;-76
2022/06/02 14:16:00;;;;;;;3.63;2.57;;;;;;;;;;5075766;28;20783;-80
2022/06/02 14:18:39;;;;;;;2.37;2.17;;;;;;;;;;5017193;28;20409;-75
2022/06/02 14:21:23;;;;;;;3.67;2.60;;;;;;;;;;5070998;28;20431;-76
2022/06/02 14:24:22;;;;;;;2.63;2.40;;;;;;;;;;5073843;28;20876;-76
2022/06/02 14:27:14;;;;;;;1.97;1.70;;;;;;;;;;5052668;28;20420;-78
2022/06/02 14:29:44;;;;;;;2.57;1.90;;;;;;;;;;5059721;28;20526;-76
2022/06/02 14:32:19;;;;;;;2.37;2.17;;;;;;;;;;5074821;28;20424;-76
2022/06/02 14:34:53;;;;;;;3.37;1.87;;;;;;;;;;5074894;28;20425;-77
2022/06/02 14:37:23;;;;;;;3.20;2.03;;;;;;;;;;5075254;28;20400;-76
2022/06/02 14:40:05;;;;;;;3.13;1.80;;;;;;;;;;5075462;28;20483;-77
2022/06/02 14:45:21;;;;;;;3.80;2.30;;;;;;;;;;5074837;28;20416;-77
2022/06/02 14:47:47;;;;;;;2.67;1.97;;;;;;;;;;5075384;28;20403;-77
2022/06/02 14:50:18;;;;;;;2.00;1.80;;;;;;;;;;5075295;28;20500;-77
2022/06/02 14:52:44;;;;;;;3.10;1.80;;;;;;;;;;5075215;28;20787;-78
2022/06/02 14:55:32;;;;;;;2.33;2.13;;;;;;;;;;5074845;28;20424;-78
2022/06/02 14:58:10;;;;;;;2.10;1.90;;;;;;;;;;5075281;28;20577;-77
2022/06/02 15:00:43;;;;;;;1.87;1.77;;;;;;;;;;5074896;28;20459;-75
2022/06/02 15:03:27;;;;;;;2.23;1.60;;;;;;;;;;5074450;28;20411;-74
2022/06/02 15:05:53;;;;;;;1.80;1.70;;;;;;;;;;5084017;28;20484;-75
2022/06/02 15:08:37;;;;;;;1.67;1.57;;;;;;;;;;5095075;28;20411;-74
2022/06/02 15:11:22;;;;;;;4.20;1.50;;;;;;;;;;5093733;28;20468;-75
2022/06/02 15:14:00;;;;;;;2.87;2.00;;;;;;;;;;5094597;28;20752;-74
2022/06/02 15:16:39;;;;;;;2.43;1.80;;;;;;;;;;5094913;28;20441;-75
2022/06/02 15:19:11;;;;;;;3.57;2.03;;;;;;;;;;5094913;28;20472;-75
2022/06/02 15:21:37;;;;;;;1.97;1.70;;;;;;;;;;5094612;28;20411;-74
2022/06/02 15:24:03;;;;;;;2.70;1.70;;;;;;;;;;5094337;28;20899;-75
2022/06/02 15:26:47;;;;;;;2.20;2.00;;;;;;;;;;5094345;28;20985;-75
2022/06/02 15:29:35;;;;;;;1.80;1.70;;;;;;;;;;5093835;28;20402;-75
2022/06/02 15:32:23;;;;;;;1.83;1.67;;;;;;;;;;5081555;28;20833;-75
2022/06/02 15:35:04;;;;;;;2.17;1.37;;;;;;;;;;5093816;28;20911;-74
2022/06/02 15:37:49;;;;;;;3.10;1.77;;;;;;;;;;5094583;28;20406;-75
2022/06/02 15:40:14;;;;;;;1.73;1.40;;;;;;;;;;5094259;28;20537;-75
2022/06/02 15:42:53;;;;;;;2.17;1.73;;;;;;;;;;5094226;28;20502;-74